Observations for Trim Patrick St
| Time | AQI | Temp °C | Hum % | Pres Pa | CO μg/m³ | H₂S μg/m³ | NO μg/m³ | NO₂ μg/m³ | O₃ μg/m³ | SO₂ μg/m³ | PM1 μg/m³ | PM2.5 μg/m³ | PM10 μg/m³ |
|---|---|---|---|---|---|---|---|---|---|---|---|---|---|
| Wednesday 5 August 2026 | |||||||||||||
| 23:56 | 2 | 14.2 | 70 | 32,174 | 0.23 | 4.1 | 3.4 | 16.24 | 57.18 | 0 | 6.29 | 10.9 | 12 |
| 23:55 | 2 | 14.2 | 70 | 30,077 | 0.21 | 3.35 | 3.39 | 11.82 | 51.14 | 0 | 5.43 | 9.5 | 10.45 |
| 23:54 | 2 | 14.2 | 70 | 27,284 | 0.21 | 4.02 | 3.4 | 12.26 | 52.73 | 0 | 5.43 | 10.9 | 11.99 |
| 23:53 | 2 | 14.2 | 70 | 23,558 | 0.22 | 4.52 | 3.4 | 13.32 | 56.76 | 0 | 5.43 | 10.93 | 12.02 |
| 23:52 | 2 | 14.2 | 70 | 18,590 | 0.21 | 4.54 | 3.37 | 14.45 | 55.13 | 0 | 4.57 | 8.74 | 9.61 |
| 23:51 | 2 | 14.3 | 70 | 12,130 | 0.22 | 4.44 | 3.29 | 16.81 | 59.68 | 0 | 4.57 | 9.48 | 10.43 |
| 23:47 | 2 | 14.3 | 69 | 107,066 | 0.2 | 4.23 | 3.32 | 13.49 | 56.34 | 0 | 3.71 | 6.63 | 7.3 |
| 23:46 | 2 | 14.3 | 69 | 104,624 | 0.19 | 4.41 | 3.33 | 15.31 | 57.87 | 0 | 6.29 | 10.25 | 11.28 |
| 23:44 | 2 | 14.3 | 70 | 95,772 | 0.2 | 4.7 | 3.25 | 16.34 | 61.57 | 0 | 4.57 | 8.79 | 9.67 |
| 23:42 | 2 | 14.3 | 68 | 91,404 | 0.21 | 3.74 | 3.28 | 13.04 | 58.42 | 0 | 4.57 | 8.89 | 9.78 |
| 23:41 | 2 | 14.3 | 69 | 89,002 | 0.19 | 3.77 | 3.32 | 11.74 | 54.65 | 0 | 5.43 | 9.57 | 10.53 |
| 23:40 | 2 | 14.4 | 68 | 87,188 | 0.2 | 4.1 | 3.33 | 14.37 | 61.32 | 0 | 3.71 | 8.15 | 8.97 |
| 23:39 | 2 | 14.4 | 69 | 85,743 | 0.2 | 3.71 | 3.3 | 11.69 | 55.63 | 0 | 2.86 | 7.41 | 8.15 |
| 23:38 | 2 | 14.4 | 68 | 84,517 | 0.2 | 3.82 | 3.31 | 12.81 | 59.72 | 0 | 3.71 | 8.16 | 8.97 |
| 23:37 | 2 | 14.4 | 68 | 83,463 | 0.19 | 3.38 | 3.3 | 12.57 | 59.78 | 0 | 4.57 | 8.9 | 9.79 |
| 23:36 | 2 | 14.4 | 68 | 82,797 | 0.2 | 3.32 | 3.31 | 11.02 | 48.67 | 0 | 3.71 | 8.14 | 8.96 |
| 23:35 | 2 | 14.4 | 67 | 82,171 | 0.21 | 3.4 | 3.3 | 15.06 | 60.17 | 0 | 6.29 | 10.4 | 11.44 |
| 23:34 | 2 | 14.4 | 68 | 81,599 | 0.2 | 3.01 | 3.3 | 11.61 | 54.15 | 0 | 3.71 | 8.22 | 9.04 |
| 23:33 | 2 | 14.4 | 68 | 81,246 | 0.2 | 3.27 | 3.28 | 11.59 | 60.36 | 0 | 4.57 | 8.9 | 9.79 |
| 23:32 | 2 | 14.4 | 68 | 80,801 | 0.19 | 2.47 | 3.28 | 11.22 | 51.38 | 0 | 5.43 | 8.91 | 9.8 |